Time;durP1;ratioP1;P1;durP2;ratioP2;P2;SDS_P1;SDS_P2;PMS_P1;PMS_P2;Temp;Humidity;BMP_temperature;BMP_pressure;BME280_temperature;BME280_humidity;BME280_pressure;Samples;Min_cycle;Max_cycle;Signal;HPM_P1;HPM_P2
2021/06/22 00:02:05;;;;;;;10.97;3.33;;;;;;;;;;5050468;28;20078;-68
2021/06/22 00:04:31;;;;;;;12.90;3.80;;;;;;;;;;5050670;28;20032;-68
2021/06/22 00:06:56;;;;;;;14.20;3.77;;;;;;;;;;5050494;28;20031;-68
2021/06/22 00:09:21;;;;;;;9.40;3.03;;;;;;;;;;5050999;28;20055;-68
2021/06/22 00:11:47;;;;;;;9.57;2.97;;;;;;;;;;5054062;28;20082;-68
2021/06/22 00:14:12;;;;;;;8.93;2.67;;;;;;;;;;5054902;28;20029;-68
2021/06/22 00:16:38;;;;;;;7.83;3.10;;;;;;;;;;5054152;28;20033;-68
2021/06/22 00:19:03;;;;;;;7.80;3.03;;;;;;;;;;5054016;28;20386;-67
2021/06/22 00:21:28;;;;;;;8.83;3.00;;;;;;;;;;5054282;28;20052;-68
2021/06/22 00:23:54;;;;;;;5.70;2.93;;;;;;;;;;5054398;28;20107;-68
2021/06/22 00:26:19;;;;;;;13.17;2.80;;;;;;;;;;5054599;28;20111;-68
2021/06/22 00:28:44;;;;;;;17.93;3.63;;;;;;;;;;5054513;28;20032;-67
2021/06/22 00:31:10;;;;;;;10.03;3.43;;;;;;;;;;5054479;28;20542;-68
2021/06/22 00:33:35;;;;;;;7.97;3.17;;;;;;;;;;5053856;28;20095;-68
2021/06/22 00:36:00;;;;;;;9.03;3.30;;;;;;;;;;5054277;28;20033;-68
2021/06/22 00:38:26;;;;;;;9.80;3.20;;;;;;;;;;5054405;28;20059;-67
2021/06/22 00:40:51;;;;;;;6.67;2.97;;;;;;;;;;5054045;28;20036;-68
2021/06/22 00:43:19;;;;;;;9.73;3.70;;;;;;;;;;5053859;28;20102;-68
2021/06/22 00:45:45;;;;;;;11.97;3.20;;;;;;;;;;5053785;28;20040;-68
2021/06/22 00:48:10;;;;;;;8.53;3.03;;;;;;;;;;5054346;28;20025;-68
2021/06/22 00:50:35;;;;;;;10.40;3.57;;;;;;;;;;5053982;28;20036;-68
2021/06/22 00:53:06;;;;;;;10.23;3.27;;;;;;;;;;5053729;28;20033;-68
2021/06/22 00:55:32;;;;;;;11.47;3.27;;;;;;;;;;5055007;28;20049;-68
2021/06/22 00:58:02;;;;;;;12.10;4.27;;;;;;;;;;5053415;28;20024;-68
2021/06/22 01:00:27;;;;;;;8.03;3.40;;;;;;;;;;5053702;28;20028;-68
2021/06/22 01:02:54;;;;;;;9.67;2.83;;;;;;;;;;5054036;28;20056;-68
2021/06/22 01:05:20;;;;;;;9.53;2.60;;;;;;;;;;5054321;28;20126;-68
2021/06/22 01:07:45;;;;;;;12.07;3.17;;;;;;;;;;5053691;28;20790;-68
2021/06/22 01:10:11;;;;;;;17.67;4.00;;;;;;;;;;5053941;28;20090;-68
2021/06/22 01:12:36;;;;;;;12.70;3.70;;;;;;;;;;5049268;22;20049;-71
2021/06/22 01:15:02;;;;;;;10.83;3.57;;;;;;;;;;5033911;28;20091;-71
2021/06/22 01:17:27;;;;;;;9.17;3.97;;;;;;;;;;5033881;28;20064;-71
2021/06/22 01:19:53;;;;;;;10.80;3.57;;;;;;;;;;5034231;28;20093;-71
2021/06/22 01:22:18;;;;;;;9.63;2.93;;;;;;;;;;5033279;28;20474;-71
2021/06/22 01:24:44;;;;;;;10.30;3.23;;;;;;;;;;5034430;28;20458;-71
2021/06/22 01:27:09;;;;;;;10.37;3.70;;;;;;;;;;5033781;28;20021;-71
2021/06/22 01:29:35;;;;;;;11.60;3.63;;;;;;;;;;5034224;28;20072;-71
2021/06/22 01:32:00;;;;;;;9.13;3.83;;;;;;;;;;5033902;28;20029;-72
2021/06/22 01:34:26;;;;;;;10.97;3.33;;;;;;;;;;5033805;28;20033;-72
2021/06/22 01:36:52;;;;;;;10.13;3.37;;;;;;;;;;5033912;28;20390;-72
2021/06/22 01:39:17;;;;;;;9.87;3.27;;;;;;;;;;5033518;28;20033;-72
2021/06/22 01:41:43;;;;;;;9.53;2.97;;;;;;;;;;5033790;28;20029;-72
2021/06/22 01:44:08;;;;;;;12.00;3.30;;;;;;;;;;5033575;28;20025;-71
2021/06/22 01:46:34;;;;;;;12.53;3.40;;;;;;;;;;5033327;28;20040;-71
2021/06/22 01:48:59;;;;;;;8.27;2.97;;;;;;;;;;5033003;28;20033;-71
2021/06/22 01:51:25;;;;;;;9.87;3.10;;;;;;;;;;5033600;28;20021;-72
2021/06/22 01:53:54;;;;;;;12.40;3.10;;;;;;;;;;5033102;28;20033;-71
2021/06/22 01:56:20;;;;;;;11.07;3.80;;;;;;;;;;5034150;28;20025;-71
2021/06/22 01:58:46;;;;;;;11.73;3.40;;;;;;;;;;5033602;28;20037;-71
2021/06/22 02:01:11;;;;;;;14.60;3.37;;;;;;;;;;5032897;28;20029;-71
2021/06/22 02:03:36;;;;;;;12.13;3.70;;;;;;;;;;5033186;28;20088;-71
2021/06/22 02:06:02;;;;;;;13.07;3.83;;;;;;;;;;5032759;28;20044;-71
2021/06/22 02:08:27;;;;;;;10.23;3.30;;;;;;;;;;5032343;28;20028;-71
2021/06/22 02:10:52;;;;;;;13.17;3.70;;;;;;;;;;5032644;28;20027;-71
2021/06/22 02:13:20;;;;;;;14.27;3.70;;;;;;;;;;5033009;28;20057;-71
2021/06/22 02:15:45;;;;;;;9.43;3.67;;;;;;;;;;5033258;28;20029;-71
2021/06/22 02:18:10;;;;;;;8.97;3.67;;;;;;;;;;5032891;28;20041;-71
2021/06/22 02:20:37;;;;;;;10.70;3.53;;;;;;;;;;5033227;28;20040;-71
2021/06/22 02:23:02;;;;;;;8.43;3.20;;;;;;;;;;5032910;28;20029;-71
2021/06/22 02:25:28;;;;;;;11.90;3.17;;;;;;;;;;5032998;28;20492;-71
2021/06/22 02:28:00;;;;;;;13.67;3.63;;;;;;;;;;5032927;28;20485;-71
2021/06/22 02:30:25;;;;;;;;;;;;;;;;;;5032747;28;20028;-71
2021/06/22 02:32:51;;;;;;;13.40;3.80;;;;;;;;;;5033702;28;19909;-72
2021/06/22 02:35:16;;;;;;;12.50;3.47;;;;;;;;;;5032958;28;20025;-72
2021/06/22 02:37:41;;;;;;;8.60;3.30;;;;;;;;;;5032719;28;20095;-72
2021/06/22 02:40:08;;;;;;;19.93;4.40;;;;;;;;;;5033134;28;20075;-72
2021/06/22 02:42:33;;;;;;;10.83;3.50;;;;;;;;;;5032504;28;20025;-72
2021/06/22 02:44:59;;;;;;;17.70;4.00;;;;;;;;;;5032981;28;20017;-72
2021/06/22 02:47:24;;;;;;;13.90;4.13;;;;;;;;;;5032995;28;20042;-72
2021/06/22 02:49:50;;;;;;;9.93;3.60;;;;;;;;;;5032621;28;20033;-72
2021/06/22 02:52:15;;;;;;;12.83;3.63;;;;;;;;;;5032671;28;20017;-72
2021/06/22 02:54:40;;;;;;;9.57;3.40;;;;;;;;;;5032875;28;20034;-72
2021/06/22 02:57:09;;;;;;;12.50;4.63;;;;;;;;;;5034778;28;20132;-72
2021/06/22 02:59:35;;;;;;;13.43;4.10;;;;;;;;;;5033093;28;20036;-73
2021/06/22 03:02:00;;;;;;;10.90;3.90;;;;;;;;;;5032568;28;20025;-73
2021/06/22 03:04:26;;;;;;;10.23;3.77;;;;;;;;;;5032760;28;20462;-73
2021/06/22 03:06:51;;;;;;;14.00;3.90;;;;;;;;;;5032465;28;20025;-73
2021/06/22 03:09:16;;;;;;;11.53;3.70;;;;;;;;;;5032717;28;20473;-73
2021/06/22 03:11:42;;;;;;;13.40;3.50;;;;;;;;;;5032889;28;20213;-72
2021/06/22 03:14:07;;;;;;;12.83;3.97;;;;;;;;;;5032412;28;20417;-72
2021/06/22 03:16:33;;;;;;;8.93;3.40;;;;;;;;;;5032698;28;20071;-72
2021/06/22 03:18:58;;;;;;;9.07;3.67;;;;;;;;;;5032574;28;20034;-72
2021/06/22 03:21:24;;;;;;;11.77;3.33;;;;;;;;;;5019542;28;20061;-72
2021/06/22 03:23:49;;;;;;;9.03;3.80;;;;;;;;;;5032402;28;20065;-72
2021/06/22 03:26:15;;;;;;;11.77;3.93;;;;;;;;;;5032604;28;20394;-73
2021/06/22 03:28:40;;;;;;;9.77;3.57;;;;;;;;;;5032617;28;20022;-73
2021/06/22 03:31:05;;;;;;;11.87;3.30;;;;;;;;;;5032739;28;20053;-73
2021/06/22 03:33:31;;;;;;;10.00;3.80;;;;;;;;;;5032643;28;20104;-73
2021/06/22 03:35:56;;;;;;;11.40;3.57;;;;;;;;;;5032990;28;20033;-73
2021/06/22 03:38:21;;;;;;;10.53;3.23;;;;;;;;;;5031834;28;20029;-73
2021/06/22 03:40:47;;;;;;;12.30;3.80;;;;;;;;;;5032549;28;20041;-73
2021/06/22 03:43:12;;;;;;;16.83;3.20;;;;;;;;;;5031997;28;20022;-73
2021/06/22 03:45:37;;;;;;;12.33;3.30;;;;;;;;;;5033875;28;20030;-73
2021/06/22 03:48:04;;;;;;;14.20;3.67;;;;;;;;;;5036035;28;20048;-73
2021/06/22 03:50:30;;;;;;;11.20;3.07;;;;;;;;;;5036457;28;20474;-73
2021/06/22 03:52:55;;;;;;;8.53;2.93;;;;;;;;;;5036245;28;20053;-73
2021/06/22 03:55:27;;;;;;;9.40;3.23;;;;;;;;;;5037817;28;20037;-72
2021/06/22 03:57:53;;;;;;;5.88;2.42;;;;;;;;;;5035922;28;20035;-72
2021/06/22 04:00:19;;;;;;;7.83;3.00;;;;;;;;;;5035936;28;20031;-72
2021/06/22 04:02:44;;;;;;;6.20;2.47;;;;;;;;;;5035702;28;20025;-72
2021/06/22 04:05:10;;;;;;;10.57;3.40;;;;;;;;;;5035723;28;20024;-72
2021/06/22 04:07:35;;;;;;;10.70;3.10;;;;;;;;;;5036080;28;20238;-72
2021/06/22 04:10:01;;;;;;;11.20;3.00;;;;;;;;;;5036218;28;20076;-72
2021/06/22 04:12:26;;;;;;;9.63;2.97;;;;;;;;;;5035783;28;20502;-72
2021/06/22 04:14:52;;;;;;;18.90;11.20;;;;;;;;;;5036184;28;20018;-72
2021/06/22 04:17:17;;;;;;;8.87;2.20;;;;;;;;;;5036091;28;20108;-72
2021/06/22 04:19:42;;;;;;;11.50;2.87;;;;;;;;;;5036020;28;20092;-72
2021/06/22 04:22:08;;;;;;;7.70;2.63;;;;;;;;;;5035744;28;20028;-72
2021/06/22 04:24:33;;;;;;;7.00;2.73;;;;;;;;;;5035741;28;20021;-72
2021/06/22 04:26:58;;;;;;;9.70;2.43;;;;;;;;;;5035149;28;20025;-72
2021/06/22 04:29:23;;;;;;;7.03;2.37;;;;;;;;;;5035354;28;20088;-72
2021/06/22 04:31:49;;;;;;;15.80;3.50;;;;;;;;;;5035462;28;20477;-72
2021/06/22 04:34:14;;;;;;;8.83;2.60;;;;;;;;;;5035137;28;20032;-71
2021/06/22 04:36:40;;;;;;;6.23;2.67;;;;;;;;;;5035613;28;20025;-72
2021/06/22 04:39:05;;;;;;;6.23;2.33;;;;;;;;;;5022037;28;20044;-73
2021/06/22 04:41:31;;;;;;;9.60;2.70;;;;;;;;;;5035541;28;20083;-72
2021/06/22 04:43:57;;;;;;;9.53;2.50;;;;;;;;;;5035342;28;20466;-72
2021/06/22 04:46:22;;;;;;;6.63;2.00;;;;;;;;;;5035278;28;20022;-71
2021/06/22 04:48:48;;;;;;;6.13;2.13;;;;;;;;;;5034983;28;20052;-72
2021/06/22 04:51:13;;;;;;;10.83;2.77;;;;;;;;;;5035056;28;20040;-72
2021/06/22 04:53:42;;;;;;;11.17;2.10;;;;;;;;;;5034908;28;20022;-73
2021/06/22 04:56:07;;;;;;;9.47;1.83;;;;;;;;;;5037134;28;20030;-73
2021/06/22 04:58:33;;;;;;;5.17;2.27;;;;;;;;;;5035020;28;20124;-73
2021/06/22 05:01:00;;;;;;;6.33;2.10;;;;;;;;;;5035654;28;20033;-73
2021/06/22 05:03:26;;;;;;;10.07;2.03;;;;;;;;;;5034434;28;20025;-73
2021/06/22 05:05:51;;;;;;;8.00;2.10;;;;;;;;;;5035504;28;21008;-72
2021/06/22 05:08:16;;;;;;;8.23;2.63;;;;;;;;;;5034886;28;20092;-72
2021/06/22 05:10:42;;;;;;;7.30;2.40;;;;;;;;;;5035059;28;20115;-72
2021/06/22 05:13:07;;;;;;;7.73;2.00;;;;;;;;;;5033996;28;20042;-72
2021/06/22 05:15:32;;;;;;;7.90;1.90;;;;;;;;;;5033874;28;20437;-72
2021/06/22 05:17:58;;;;;;;8.00;2.07;;;;;;;;;;5030332;28;20095;-72
2021/06/22 05:20:23;;;;;;;9.63;2.40;;;;;;;;;;5034811;28;20052;-71
2021/06/22 05:22:48;;;;;;;5.63;1.77;;;;;;;;;;5033802;28;20475;-71
2021/06/22 05:25:14;;;;;;;6.50;1.90;;;;;;;;;;5035197;28;20033;-72
2021/06/22 05:27:39;;;;;;;6.50;1.83;;;;;;;;;;5034550;28;20487;-71
2021/06/22 05:30:05;;;;;;;10.93;2.10;;;;;;;;;;5033623;28;20101;-71
2021/06/22 05:32:30;;;;;;;6.38;1.30;;;;;;;;;;5033736;28;20117;-71
2021/06/22 05:34:55;;;;;;;10.13;1.55;;;;;;;;;;5033782;28;20036;-71
2021/06/22 05:37:23;;;;;;;8.10;1.50;;;;;;;;;;5033362;28;20053;-71
2021/06/22 05:39:48;;;;;;;5.80;1.55;;;;;;;;;;5029727;28;20013;-71
2021/06/22 05:42:14;;;;;;;7.97;1.70;;;;;;;;;;5033960;28;20029;-71
2021/06/22 05:44:39;;;;;;;4.50;1.48;;;;;;;;;;5034333;28;20028;-71
2021/06/22 05:47:05;;;;;;;5.28;1.38;;;;;;;;;;5033793;28;20042;-71
2021/06/22 05:49:30;;;;;;;5.93;1.45;;;;;;;;;;5034269;28;20021;-71
2021/06/22 05:51:55;;;;;;;10.75;1.58;;;;;;;;;;5034110;28;20021;-71
2021/06/22 05:54:21;;;;;;;5.35;1.27;;;;;;;;;;5034149;28;20438;-71
2021/06/22 05:56:46;;;;;;;9.15;1.30;;;;;;;;;;5035226;28;20033;-71
2021/06/22 05:59:11;;;;;;;3.75;1.30;;;;;;;;;;5034409;28;20093;-71
2021/06/22 06:01:37;;;;;;;7.03;1.60;;;;;;;;;;5035011;28;20025;-71
2021/06/22 06:04:03;;;;;;;7.38;1.60;;;;;;;;;;5034662;28;20023;-71
2021/06/22 06:06:28;;;;;;;5.45;0.95;;;;;;;;;;5034190;28;20100;-71
2021/06/22 06:08:54;;;;;;;13.38;1.70;;;;;;;;;;5036894;28;20025;-70
2021/06/22 06:11:19;;;;;;;4.65;1.15;;;;;;;;;;5036063;28;20066;-70
2021/06/22 06:13:44;;;;;;;6.57;1.20;;;;;;;;;;5034434;28;20378;-70
2021/06/22 06:16:14;;;;;;;5.43;1.30;;;;;;;;;;5035398;28;20025;-71
2021/06/22 06:18:39;;;;;;;6.50;1.30;;;;;;;;;;5036999;28;20382;-72
2021/06/22 06:21:05;;;;;;;8.07;1.77;;;;;;;;;;5034126;28;20030;-72
2021/06/22 06:23:39;;;;;;;6.97;1.77;;;;;;;;;;5034858;28;20040;-72
2021/06/22 06:26:04;;;;;;;9.00;1.70;;;;;;;;;;5033346;28;20104;-72
2021/06/22 06:28:33;;;;;;;6.10;1.40;;;;;;;;;;5033317;28;20064;-72
2021/06/22 06:30:58;;;;;;;6.22;1.65;;;;;;;;;;5033629;28;20378;-72
2021/06/22 06:33:24;;;;;;;5.95;1.80;;;;;;;;;;5033125;28;20064;-72
2021/06/22 06:35:51;;;;;;;7.15;1.70;;;;;;;;;;5033927;28;20037;-72
2021/06/22 06:38:16;;;;;;;8.52;2.30;;;;;;;;;;5035083;28;20029;-72
2021/06/22 06:40:41;;;;;;;7.03;2.35;;;;;;;;;;5033545;28;20021;-72
2021/06/22 06:43:07;;;;;;;7.28;1.90;;;;;;;;;;5033089;28;20036;-72
2021/06/22 06:45:32;;;;;;;6.45;1.98;;;;;;;;;;5032967;28;20056;-72
2021/06/22 06:47:58;;;;;;;7.88;2.03;;;;;;;;;;5033243;28;20467;-72
2021/06/22 06:50:23;;;;;;;5.15;2.05;;;;;;;;;;5032821;28;20429;-72
2021/06/22 06:52:48;;;;;;;6.35;2.05;;;;;;;;;;5033064;28;20043;-72
2021/06/22 06:55:32;;;;;;;5.22;1.90;;;;;;;;;;5034127;28;20075;-72
2021/06/22 06:57:58;;;;;;;9.68;2.25;;;;;;;;;;5032545;28;20028;-71
2021/06/22 07:00:24;;;;;;;8.50;2.30;;;;;;;;;;5032472;28;20020;-72
2021/06/22 07:02:50;;;;;;;9.02;2.28;;;;;;;;;;5032560;28;20493;-72
2021/06/22 07:05:15;;;;;;;4.22;2.03;;;;;;;;;;5032392;28;20482;-72
2021/06/22 07:07:40;;;;;;;8.43;2.20;;;;;;;;;;5032511;28;20025;-72
2021/06/22 07:10:06;;;;;;;4.13;1.70;;;;;;;;;;5033099;28;20017;-71
2021/06/22 07:12:31;;;;;;;7.57;2.15;;;;;;;;;;5032253;28;20120;-71
2021/06/22 07:14:57;;;;;;;7.32;1.63;;;;;;;;;;5032897;28;20093;-71
2021/06/22 07:17:22;;;;;;;4.68;1.88;;;;;;;;;;5032581;28;20025;-71
2021/06/22 07:19:47;;;;;;;5.32;2.17;;;;;;;;;;5031867;28;20022;-71
2021/06/22 07:22:13;;;;;;;4.15;1.48;;;;;;;;;;5032329;28;20025;-71
2021/06/22 07:24:38;;;;;;;6.88;1.40;;;;;;;;;;5031434;28;20071;-71
2021/06/22 07:27:04;;;;;;;4.72;1.40;;;;;;;;;;5031923;28;20084;-71
2021/06/22 07:29:29;;;;;;;5.78;1.40;;;;;;;;;;5032181;28;20117;-71
2021/06/22 07:31:54;;;;;;;6.03;1.73;;;;;;;;;;5032256;28;20071;-72
2021/06/22 07:34:20;;;;;;;4.60;1.60;;;;;;;;;;5032225;28;20025;-71
2021/06/22 07:36:45;;;;;;;5.35;1.27;;;;;;;;;;5032159;28;20047;-71
2021/06/22 07:39:10;;;;;;;6.63;1.55;;;;;;;;;;5032033;28;20022;-71
2021/06/22 07:41:36;;;;;;;4.32;1.58;;;;;;;;;;5032964;28;20508;-72
2021/06/22 07:44:01;;;;;;;6.72;1.55;;;;;;;;;;5031664;28;20202;-72
2021/06/22 07:46:27;;;;;;;6.22;1.75;;;;;;;;;;5032093;28;20025;-72
2021/06/22 07:48:52;;;;;;;9.10;1.92;;;;;;;;;;5033480;28;20021;-72
2021/06/22 07:51:17;;;;;;;7.45;1.63;;;;;;;;;;5033263;28;20025;-71
2021/06/22 07:53:43;;;;;;;5.63;1.85;;;;;;;;;;5033182;28;20100;-71
2021/06/22 07:56:08;;;;;;;4.50;1.60;;;;;;;;;;5037091;28;20111;-71
2021/06/22 07:58:33;;;;;;;4.20;1.50;;;;;;;;;;5032672;28;20033;-72
2021/06/22 08:00:59;;;;;;;7.88;1.92;;;;;;;;;;5032496;28;20026;-71
2021/06/22 08:03:27;;;;;;;5.07;1.90;;;;;;;;;;5032783;28;20482;-71
2021/06/22 08:05:53;;;;;;;8.27;1.95;;;;;;;;;;5032571;28;20020;-71
2021/06/22 08:08:18;;;;;;;6.70;2.05;;;;;;;;;;5033098;28;20017;-71
2021/06/22 08:10:56;;;;;;;4.13;1.60;;;;;;;;;;5032643;28;20045;-71
2021/06/22 08:13:22;;;;;;;8.38;2.28;;;;;;;;;;5032726;28;20503;-72
2021/06/22 08:15:48;;;;;;;6.68;2.00;;;;;;;;;;5031988;28;20029;-72
2021/06/22 08:18:13;;;;;;;6.90;1.80;;;;;;;;;;5032295;28;20029;-72
2021/06/22 08:20:39;;;;;;;3.63;1.63;;;;;;;;;;5032612;28;20378;-72
2021/06/22 08:23:05;;;;;;;5.68;2.00;;;;;;;;;;5032173;28;20018;-72
2021/06/22 08:25:30;;;;;;;8.13;2.25;;;;;;;;;;5031626;28;20029;-72
2021/06/22 08:27:56;;;;;;;6.38;2.22;;;;;;;;;;5032266;28;20429;-72
2021/06/22 08:30:23;;;;;;;5.50;1.95;;;;;;;;;;5032375;28;20378;-72
2021/06/22 08:32:48;;;;;;;6.85;2.50;;;;;;;;;;5035244;28;20021;-72
2021/06/22 08:35:14;;;;;;;6.05;2.45;;;;;;;;;;5035446;28;20079;-72
2021/06/22 08:37:39;;;;;;;8.02;2.40;;;;;;;;;;5035580;28;20350;-72
2021/06/22 08:40:05;;;;;;;6.70;2.78;;;;;;;;;;5035378;28;20071;-72
2021/06/22 08:42:31;;;;;;;8.55;2.80;;;;;;;;;;5034744;28;20112;-71
2021/06/22 08:45:00;;;;;;;7.43;2.30;;;;;;;;;;5035942;28;20097;-71
2021/06/22 08:47:25;;;;;;;10.32;2.40;;;;;;;;;;5032084;28;20112;-71
2021/06/22 08:49:55;;;;;;;4.80;2.38;;;;;;;;;;5031727;28;20565;-72
2021/06/22 08:52:24;;;;;;;4.55;2.45;;;;;;;;;;5031139;28;20536;-72
2021/06/22 08:54:53;;;;;;;7.65;2.05;;;;;;;;;;5031806;28;20029;-72
2021/06/22 08:57:19;;;;;;;11.32;3.47;;;;;;;;;;5038418;28;20036;-72
2021/06/22 08:59:44;;;;;;;4.78;2.40;;;;;;;;;;5031783;28;20675;-72
2021/06/22 09:02:10;;;;;;;7.55;2.33;;;;;;;;;;5031411;28;20587;-72
2021/06/22 09:04:35;;;;;;;7.65;2.20;;;;;;;;;;5031658;28;20031;-72
2021/06/22 09:07:01;;;;;;;10.55;2.20;;;;;;;;;;5031316;28;20539;-72
2021/06/22 09:09:33;;;;;;;7.28;2.20;;;;;;;;;;5031816;28;20469;-72
2021/06/22 09:11:59;;;;;;;;;;;;;;;;;;5031695;28;20060;-72
2021/06/22 09:14:32;;;;;;;5.20;2.00;;;;;;;;;;5031680;28;20285;-71
2021/06/22 09:17:01;;;;;;;6.57;2.10;;;;;;;;;;5031903;28;20556;-71
2021/06/22 09:19:26;;;;;;;4.82;2.20;;;;;;;;;;5032122;28;20501;-71
2021/06/22 09:21:53;;;;;;;6.95;1.92;;;;;;;;;;5031410;28;20117;-71
2021/06/22 09:24:22;;;;;;;6.55;1.80;;;;;;;;;;5031808;28;20029;-72
2021/06/22 09:26:48;;;;;;;4.55;2.00;;;;;;;;;;5031283;28;20029;-72
2021/06/22 09:29:15;;;;;;;6.93;2.47;;;;;;;;;;5031142;28;20425;-72
2021/06/22 09:31:54;;;;;;;7.35;1.95;;;;;;;;;;5031167;28;20044;-72
2021/06/22 09:34:20;;;;;;;7.20;1.73;;;;;;;;;;5031049;28;20044;-72
2021/06/22 09:36:52;;;;;;;8.85;2.03;;;;;;;;;;5030863;28;20060;-72
2021/06/22 09:39:18;;;;;;;4.03;1.83;;;;;;;;;;5031348;28;20035;-72
2021/06/22 09:41:43;;;;;;;5.70;1.63;;;;;;;;;;5030563;28;20030;-72
2021/06/22 09:44:34;;;;;;;7.00;1.80;;;;;;;;;;5030412;28;20064;-72
2021/06/22 09:47:00;;;;;;;3.40;1.42;;;;;;;;;;5030475;28;20107;-72
2021/06/22 09:49:32;;;;;;;3.80;1.40;;;;;;;;;;5032468;28;20052;-72
2021/06/22 09:52:04;;;;;;;6.93;1.70;;;;;;;;;;5043717;28;20433;-72
2021/06/22 09:54:31;;;;;;;5.43;1.60;;;;;;;;;;5030506;28;20013;-72
2021/06/22 09:57:12;;;;;;;3.10;1.05;;;;;;;;;;5030507;28;20108;-72
2021/06/22 09:59:51;;;;;;;3.70;1.20;;;;;;;;;;5030664;28;20072;-72
2021/06/22 10:02:17;;;;;;;3.90;1.30;;;;;;;;;;5030671;28;20033;-72
2021/06/22 10:04:49;;;;;;;6.13;1.58;;;;;;;;;;5031127;28;20022;-73
2021/06/22 10:07:16;;;;;;;4.90;1.75;;;;;;;;;;5030417;28;20029;-72
2021/06/22 10:09:42;;;;;;;5.13;1.63;;;;;;;;;;5030479;28;20032;-72
2021/06/22 10:12:15;;;;;;;5.68;1.40;;;;;;;;;;5030203;28;20054;-72
2021/06/22 10:14:44;;;;;;;4.50;1.50;;;;;;;;;;5018635;28;20018;-72
2021/06/22 10:17:10;;;;;;;4.07;1.33;;;;;;;;;;5030698;28;20036;-72
2021/06/22 10:19:36;;;;;;;3.85;1.45;;;;;;;;;;5030520;28;20036;-73
2021/06/22 10:22:05;;;;;;;4.35;1.17;;;;;;;;;;5029737;28;20033;-73
2021/06/22 10:24:30;;;;;;;5.90;1.42;;;;;;;;;;5045236;28;20028;-73
2021/06/22 10:26:57;;;;;;;4.55;1.20;;;;;;;;;;5035674;28;20696;-73
2021/06/22 10:29:23;;;;;;;3.22;1.10;;;;;;;;;;5016828;28;20060;-73
2021/06/22 10:31:50;;;;;;;3.85;1.30;;;;;;;;;;5029619;28;20024;-73
2021/06/22 10:34:16;;;;;;;8.43;1.35;;;;;;;;;;5029206;28;20116;-74
2021/06/22 10:37:02;;;;;;;5.50;0.98;;;;;;;;;;5029609;28;20155;-73
2021/06/22 10:39:29;;;;;;;4.50;1.20;;;;;;;;;;5030010;28;20452;-73
2021/06/22 10:41:56;;;;;;;5.20;1.20;;;;;;;;;;5032015;28;20053;-73
2021/06/22 10:44:40;;;;;;;4.70;1.52;;;;;;;;;;5029967;28;20453;-73
2021/06/22 10:47:25;;;;;;;5.18;1.35;;;;;;;;;;5028063;28;20523;-73
2021/06/22 10:50:01;;;;;;;4.10;1.40;;;;;;;;;;5029361;28;20025;-72
2021/06/22 10:53:02;;;;;;;4.38;1.80;;;;;;;;;;5028905;28;20037;-72
2021/06/22 10:55:48;;;;;;;6.53;1.60;;;;;;;;;;4947464;28;20023;-71
2021/06/22 10:58:14;;;;;;;3.78;1.40;;;;;;;;;;4939231;29;20039;-72
2021/06/22 11:01:00;;;;;;;3.55;1.50;;;;;;;;;;4949393;29;20050;-74
2021/06/22 11:03:33;;;;;;;6.15;1.20;;;;;;;;;;4938172;29;20404;-74
2021/06/22 11:06:30;;;;;;;4.00;1.30;;;;;;;;;;4948584;29;20034;-73
2021/06/22 11:09:14;;;;;;;3.15;1.33;;;;;;;;;;4916301;28;20182;-73
2021/06/22 11:11:39;;;;;;;4.15;1.40;;;;;;;;;;4948160;29;20039;-73
2021/06/22 11:14:05;;;;;;;5.78;1.83;;;;;;;;;;4948410;29;20413;-72
2021/06/22 11:16:31;;;;;;;3.35;1.35;;;;;;;;;;4948418;29;20031;-73
2021/06/22 11:19:04;;;;;;;4.70;1.60;;;;;;;;;;4948354;29;20498;-73
2021/06/22 11:21:34;;;;;;;4.55;1.70;;;;;;;;;;4948438;29;20051;-74
2021/06/22 11:24:25;;;;;;;4.10;1.58;;;;;;;;;;4947769;29;20039;-73
2021/06/22 11:27:03;;;;;;;4.97;1.83;;;;;;;;;;4945982;29;20122;-73
2021/06/22 11:29:46;;;;;;;7.43;1.95;;;;;;;;;;4988446;28;20378;-73
2021/06/22 11:32:26;;;;;;;4.72;1.60;;;;;;;;;;5028775;28;20033;-73
2021/06/22 11:34:56;;;;;;;5.72;2.20;;;;;;;;;;5029298;28;20449;-73
2021/06/22 11:37:22;;;;;;;4.70;1.55;;;;;;;;;;5028939;28;20033;-73
2021/06/22 11:40:26;;;;;;;5.60;1.80;;;;;;;;;;5028685;28;20033;-73
2021/06/22 11:43:04;;;;;;;5.45;1.77;;;;;;;;;;4978932;28;20030;-73
2021/06/22 11:45:30;;;;;;;7.28;1.90;;;;;;;;;;4986943;28;20058;-73
2021/06/22 11:47:56;;;;;;;4.85;1.58;;;;;;;;;;4986528;28;20136;-74
2021/06/22 11:50:23;;;;;;;7.68;1.83;;;;;;;;;;4983627;28;20057;-73
2021/06/22 11:52:51;;;;;;;4.85;1.80;;;;;;;;;;4985663;28;20038;-73
2021/06/22 11:55:19;;;;;;;8.68;2.03;;;;;;;;;;4988658;28;20034;-73
2021/06/22 11:57:51;;;;;;;5.38;1.70;;;;;;;;;;4980758;28;20026;-74
2021/06/22 12:00:18;;;;;;;4.47;1.55;;;;;;;;;;4986498;28;20038;-74
2021/06/22 12:02:47;;;;;;;7.07;2.25;;;;;;;;;;4986249;28;20112;-73
2021/06/22 12:05:13;;;;;;;4.78;1.80;;;;;;;;;;4986855;28;20514;-74
2021/06/22 12:07:46;;;;;;;5.00;1.85;;;;;;;;;;4990266;28;20034;-73
2021/06/22 12:10:11;;;;;;;5.47;2.05;;;;;;;;;;4991729;28;20053;-73
2021/06/22 12:12:44;;;;;;;4.93;2.15;;;;;;;;;;4994130;28;20518;-73
2021/06/22 12:15:10;;;;;;;4.32;1.77;;;;;;;;;;5032809;28;20028;-74
2021/06/22 12:17:36;;;;;;;7.57;2.17;;;;;;;;;;5032014;28;20029;-74
2021/06/22 12:20:01;;;;;;;5.38;2.13;;;;;;;;;;5032633;28;20036;-75
2021/06/22 12:22:26;;;;;;;5.95;1.60;;;;;;;;;;5032231;28;20029;-75
2021/06/22 12:24:52;;;;;;;4.13;1.58;;;;;;;;;;5032416;28;20026;-75
2021/06/22 12:27:17;;;;;;;5.18;1.58;;;;;;;;;;5031529;28;20087;-75
2021/06/22 12:29:42;;;;;;;5.18;1.70;;;;;;;;;;5032141;28;20014;-74
2021/06/22 12:32:09;;;;;;;6.47;1.83;;;;;;;;;;5032186;28;20034;-73
2021/06/22 12:34:36;;;;;;;4.20;1.60;;;;;;;;;;5032258;28;20056;-73
2021/06/22 12:37:02;;;;;;;6.50;2.00;;;;;;;;;;5032454;28;20367;-73
2021/06/22 12:39:37;;;;;;;4.78;1.95;;;;;;;;;;5032940;28;20025;-73
2021/06/22 12:42:04;;;;;;;9.18;1.73;;;;;;;;;;5030941;28;20398;-73
2021/06/22 12:44:29;;;;;;;4.15;1.60;;;;;;;;;;5031658;28;20033;-73
2021/06/22 12:46:58;;;;;;;5.55;1.83;;;;;;;;;;5031677;28;20072;-73
2021/06/22 12:49:27;;;;;;;5.90;1.90;;;;;;;;;;5032117;28;20021;-73
2021/06/22 12:51:56;;;;;;;7.68;1.85;;;;;;;;;;5031833;28;20536;-73
2021/06/22 12:54:24;;;;;;;7.65;2.03;;;;;;;;;;5031795;28;20028;-73
2021/06/22 12:56:53;;;;;;;8.05;2.25;;;;;;;;;;5041040;28;20385;-73
2021/06/22 12:59:22;;;;;;;9.23;1.65;;;;;;;;;;5038039;28;20027;-74
2021/06/22 13:01:48;;;;;;;4.15;1.30;;;;;;;;;;5031381;28;20381;-74
2021/06/22 13:04:15;;;;;;;4.50;1.33;;;;;;;;;;5032074;28;20108;-75
2021/06/22 13:06:42;;;;;;;6.03;1.42;;;;;;;;;;5031892;28;20117;-75
2021/06/22 13:09:08;;;;;;;7.30;1.60;;;;;;;;;;5031777;28;20048;-75
2021/06/22 13:11:35;;;;;;;5.55;1.35;;;;;;;;;;5031713;28;20363;-75
2021/06/22 13:14:18;;;;;;;7.03;1.60;;;;;;;;;;5031214;28;20029;-74
2021/06/22 13:16:44;;;;;;;4.70;1.40;;;;;;;;;;5031579;28;20029;-74
2021/06/22 13:19:11;;;;;;;5.05;1.50;;;;;;;;;;5029470;28;20029;-74
2021/06/22 13:21:38;;;;;;;4.70;1.58;;;;;;;;;;5031556;28;20033;-74
2021/06/22 13:24:03;;;;;;;6.30;1.50;;;;;;;;;;5030745;28;20032;-74
2021/06/22 13:26:29;;;;;;;6.22;1.70;;;;;;;;;;5031238;28;20537;-74
2021/06/22 13:28:58;;;;;;;5.45;1.80;;;;;;;;;;5030962;28;20035;-74
2021/06/22 13:31:23;;;;;;;7.15;2.03;;;;;;;;;;5031251;28;20536;-74
2021/06/22 13:33:57;;;;;;;4.32;1.60;;;;;;;;;;5030642;28;20033;-74
2021/06/22 13:36:23;;;;;;;5.03;1.77;;;;;;;;;;5031210;28;20075;-74
2021/06/22 13:38:59;;;;;;;7.05;1.58;;;;;;;;;;5030789;28;20037;-74
2021/06/22 13:41:24;;;;;;;7.53;1.65;;;;;;;;;;5031265;28;20051;-75
2021/06/22 13:43:49;;;;;;;6.70;1.52;;;;;;;;;;5030694;28;20116;-74
2021/06/22 13:46:28;;;;;;;5.80;1.67;;;;;;;;;;5031149;28;20076;-74
2021/06/22 13:48:54;;;;;;;5.30;1.30;;;;;;;;;;5030898;28;20021;-74
2021/06/22 13:51:39;;;;;;;8.85;1.58;;;;;;;;;;5030881;28;20045;-73
2021/06/22 13:54:08;;;;;;;5.32;1.77;;;;;;;;;;5030616;28;20029;-74
2021/06/22 13:56:34;;;;;;;6.72;1.48;;;;;;;;;;5040019;28;20033;-74
2021/06/22 13:58:59;;;;;;;5.80;1.40;;;;;;;;;;5030313;28;20398;-74
2021/06/22 14:01:25;;;;;;;6.93;1.50;;;;;;;;;;5031167;28;20034;-73
2021/06/22 14:03:50;;;;;;;9.25;1.70;;;;;;;;;;5029928;28;20033;-73
2021/06/22 14:06:16;;;;;;;4.60;1.65;;;;;;;;;;5030196;28;20063;-73
2021/06/22 14:08:41;;;;;;;4.65;1.92;;;;;;;;;;5029727;28;20029;-73
2021/06/22 14:11:07;;;;;;;4.70;1.70;;;;;;;;;;5025246;28;20031;-73
2021/06/22 14:13:32;;;;;;;5.32;1.92;;;;;;;;;;5024275;28;20080;-73
2021/06/22 14:15:58;;;;;;;5.68;1.30;;;;;;;;;;5026855;28;20521;-74
2021/06/22 14:18:24;;;;;;;8.68;1.67;;;;;;;;;;5029850;28;20557;-74
2021/06/22 14:20:50;;;;;;;4.78;1.88;;;;;;;;;;5030451;28;20111;-74
2021/06/22 14:23:15;;;;;;;7.43;2.05;;;;;;;;;;5030278;28;20474;-74
2021/06/22 14:25:41;;;;;;;6.45;1.75;;;;;;;;;;5030732;28;20034;-75
2021/06/22 14:28:08;;;;;;;10.50;1.95;;;;;;;;;;5031431;28;20326;-75
2021/06/22 14:30:33;;;;;;;6.38;1.88;;;;;;;;;;5030506;28;20018;-76
2021/06/22 14:33:00;;;;;;;5.63;1.60;;;;;;;;;;5029442;28;20033;-75
2021/06/22 14:35:25;;;;;;;4.55;1.70;;;;;;;;;;5030926;28;20569;-75
2021/06/22 14:37:52;;;;;;;7.13;1.58;;;;;;;;;;5028826;28;20056;-74
2021/06/22 14:40:19;;;;;;;6.63;1.70;;;;;;;;;;5031840;28;20454;-74
2021/06/22 14:42:45;;;;;;;6.18;1.67;;;;;;;;;;5029934;28;20503;-74